Time;durP1;ratioP1;P1;durP2;ratioP2;P2;SDS_P1;SDS_P2;PMS_P1;PMS_P2;Temp;Humidity;BMP_temperature;BMP_pressure;BME280_temperature;BME280_humidity;BME280_pressure;Samples;Min_cycle;Max_cycle;Signal;HPM_P1;HPM_P2
2023/11/05 00:01:47;;;;;;;12.52;4.63;;;9.60;99.90;;;;;;5061266;28;20388;-75
2023/11/05 00:04:13;;;;;;;12.63;4.20;;;9.60;99.90;;;;;;5063222;28;20120;-76
2023/11/05 00:06:39;;;;;;;17.05;5.07;;;9.60;99.90;;;;;;5081589;28;20051;-75
2023/11/05 00:09:04;;;;;;;13.57;4.40;;;9.60;99.90;;;;;;5067881;28;20048;-76
2023/11/05 00:11:30;;;;;;;16.23;4.93;;;9.60;99.90;;;;;;5074908;28;20044;-76
2023/11/05 00:13:57;;;;;;;15.88;5.30;;;9.60;99.90;;;;;;5073215;28;20612;-76
2023/11/05 00:16:23;;;;;;;18.88;4.50;;;9.60;99.90;;;;;;5080026;28;20102;-75
2023/11/05 00:18:49;;;;;;;15.23;4.93;;;9.60;99.90;;;;;;5078750;28;20042;-75
2023/11/05 00:21:15;;;;;;;14.88;4.72;;;9.60;99.90;;;;;;5072054;28;20253;-76
2023/11/05 00:23:41;;;;;;;18.25;5.75;;;9.60;99.90;;;;;;5087167;28;20043;-76
2023/11/05 00:26:07;;;;;;;9.73;3.30;;;9.60;99.90;;;;;;5066169;28;20044;-76
2023/11/05 00:28:32;;;;;;;15.02;4.22;;;9.60;99.90;;;;;;5103490;27;20036;-76
2023/11/05 00:30:58;;;;;;;20.58;5.03;;;9.60;99.90;;;;;;5072733;28;20055;-76
2023/11/05 00:33:25;;;;;;;12.43;4.05;;;9.60;99.90;;;;;;5077477;28;20043;-76
2023/11/05 00:35:50;;;;;;;16.23;5.03;;;9.60;99.90;;;;;;5068298;28;20454;-75
2023/11/05 00:38:16;;;;;;;12.77;4.57;;;9.60;99.90;;;;;;5082592;28;20045;-76
2023/11/05 00:40:42;;;;;;;12.02;3.60;;;9.60;99.90;;;;;;5074609;28;20452;-75
2023/11/05 00:43:08;;;;;;;12.20;4.38;;;9.60;99.90;;;;;;5100031;28;20286;-78
2023/11/05 00:45:34;;;;;;;14.43;4.47;;;9.60;99.90;;;;;;5075958;28;20123;-76
2023/11/05 00:47:59;;;;;;;14.27;4.30;;;9.50;99.90;;;;;;5059302;28;20040;-78
2023/11/05 00:50:25;;;;;;;12.05;4.22;;;9.50;99.90;;;;;;5068247;28;20040;-75
2023/11/05 00:52:52;;;;;;;10.35;3.50;;;9.50;99.90;;;;;;5067112;28;20043;-76
2023/11/05 00:55:17;;;;;;;15.70;4.45;;;9.50;99.90;;;;;;5090721;28;20293;-76
2023/11/05 00:57:44;;;;;;;16.52;3.95;;;9.50;99.90;;;;;;5062542;28;20041;-75
2023/11/05 01:00:12;;;;;;;14.15;3.75;;;9.40;99.90;;;;;;5079558;28;20180;-76
2023/11/05 01:02:41;;;;;;;19.42;4.07;;;9.40;99.90;;;;;;5053243;28;20469;-75
2023/11/05 01:05:07;;;;;;;14.52;3.80;;;9.40;99.90;;;;;;5051522;28;20040;-74
2023/11/05 01:07:35;;;;;;;15.02;3.92;;;9.40;99.90;;;;;;5071957;28;20055;-75
2023/11/05 01:10:02;;;;;;;12.93;3.92;;;9.30;99.90;;;;;;5058131;28;20558;-75
2023/11/05 01:12:28;;;;;;;14.93;3.72;;;9.30;99.90;;;;;;5073684;28;20035;-75
2023/11/05 01:14:55;;;;;;;15.27;3.58;;;9.30;99.90;;;;;;5075948;28;20040;-75
2023/11/05 01:17:21;;;;;;;12.45;3.55;;;9.30;99.90;;;;;;5051024;28;20063;-75
2023/11/05 01:19:47;;;;;;;15.35;3.47;;;9.20;99.90;;;;;;5072128;28;20070;-75
2023/11/05 01:22:13;;;;;;;9.35;2.65;;;9.20;99.90;;;;;;5083359;28;20143;-75
2023/11/05 01:24:39;;;;;;;11.55;3.13;;;9.20;99.90;;;;;;5087185;28;20653;-75
2023/11/05 01:27:05;;;;;;;10.00;2.72;;;9.10;99.90;;;;;;5094429;28;20047;-75
2023/11/05 01:29:31;;;;;;;13.85;3.15;;;9.10;99.90;;;;;;5088091;28;20047;-75
2023/11/05 01:32:00;;;;;;;15.80;3.63;;;9.10;99.90;;;;;;5070713;28;20133;-74
2023/11/05 01:34:26;;;;;;;16.42;2.97;;;9.10;99.90;;;;;;5077464;28;20119;-75
2023/11/05 01:36:51;;;;;;;18.55;3.53;;;9.00;99.90;;;;;;5068022;28;20119;-75
2023/11/05 01:39:19;;;;;;;13.57;3.38;;;9.00;99.90;;;;;;5082017;28;20478;-75
2023/11/05 01:41:45;;;;;;;11.98;3.50;;;9.00;99.90;;;;;;5088672;28;20069;-75
2023/11/05 01:44:12;;;;;;;15.02;3.78;;;8.90;99.90;;;;;;5071433;28;20609;-75
2023/11/05 01:46:38;;;;;;;15.95;4.00;;;8.90;99.90;;;;;;5075946;28;20044;-75
2023/11/05 01:49:05;;;;;;;11.10;3.28;;;8.90;99.90;;;;;;5075172;28;20032;-75
2023/11/05 01:51:32;;;;;;;13.60;3.42;;;8.90;99.90;;;;;;5072440;28;20367;-78
2023/11/05 01:53:59;;;;;;;12.35;3.50;;;8.90;99.90;;;;;;5083265;28;20127;-78
2023/11/05 01:56:27;;;;;;;14.40;4.15;;;8.90;99.90;;;;;;5066099;28;20085;-79
2023/11/05 01:58:57;;;;;;;14.35;3.63;;;8.90;99.90;;;;;;5075322;28;20036;-78
2023/11/05 02:01:25;;;;;;;16.20;4.32;;;8.90;99.90;;;;;;5072905;28;20158;-77
2023/11/05 02:03:51;;;;;;;12.32;3.97;;;9.00;99.90;;;;;;5063284;28;20033;-78
2023/11/05 02:06:17;;;;;;;11.38;3.53;;;9.00;99.90;;;;;;5058495;28;20052;-78
2023/11/05 02:08:43;;;;;;;14.10;3.88;;;9.00;99.90;;;;;;5066291;28;20036;-78
2023/11/05 02:11:08;;;;;;;12.63;3.60;;;9.00;99.90;;;;;;5079418;28;20040;-79
2023/11/05 02:13:51;;;;;;;11.60;3.78;;;9.00;99.90;;;;;;5065715;28;20248;-78
2023/11/05 02:16:19;;;;;;;19.55;4.38;;;9.00;99.90;;;;;;5077570;28;20055;-78
2023/11/05 02:18:46;;;;;;;11.75;3.47;;;9.00;99.90;;;;;;5075893;28;20159;-77
2023/11/05 02:21:25;;;;;;;17.90;3.92;;;9.00;99.90;;;;;;5070697;28;20416;-78
2023/11/05 02:23:51;;;;;;;16.60;4.57;;;9.00;99.90;;;;;;5077189;28;20078;-78
2023/11/05 02:26:17;;;;;;;17.90;3.75;;;9.00;99.90;;;;;;5076079;28;20323;-78
2023/11/05 02:28:43;;;;;;;10.73;3.33;;;8.90;99.90;;;;;;5070354;28;20440;-78
2023/11/05 02:31:09;;;;;;;13.38;3.72;;;8.90;99.90;;;;;;5069006;28;20040;-78
2023/11/05 02:33:41;;;;;;;12.80;4.05;;;9.00;99.90;;;;;;5087690;28;20042;-78
2023/11/05 02:36:07;;;;;;;15.45;3.85;;;8.90;99.90;;;;;;5065485;28;20048;-75
2023/11/05 02:38:33;;;;;;;11.35;3.33;;;8.90;99.90;;;;;;5075806;28;20122;-75
2023/11/05 02:40:59;;;;;;;11.98;3.25;;;8.90;99.90;;;;;;5064061;28;20173;-75
2023/11/05 02:43:25;;;;;;;14.38;3.95;;;8.90;99.90;;;;;;5082804;28;20118;-75
2023/11/05 02:45:50;;;;;;;18.80;3.92;;;8.90;99.90;;;;;;5064048;28;20064;-75
2023/11/05 02:48:16;;;;;;;13.10;3.88;;;8.90;99.90;;;;;;5082320;28;20521;-75
2023/11/05 02:50:43;;;;;;;13.30;3.10;;;8.90;99.90;;;;;;5066188;28;20060;-75
2023/11/05 02:53:11;;;;;;;11.50;3.25;;;9.00;99.90;;;;;;5064951;28;20044;-75
2023/11/05 02:55:36;;;;;;;10.85;3.25;;;9.00;99.90;;;;;;5089643;28;20127;-75
2023/11/05 02:58:03;;;;;;;18.73;3.75;;;9.00;99.90;;;;;;5077919;28;20546;-75
2023/11/05 03:00:33;;;;;;;12.40;3.40;;;9.00;99.90;;;;;;5066222;28;20052;-75
2023/11/05 03:03:00;;;;;;;17.90;3.72;;;9.00;99.90;;;;;;5082525;28;20756;-75
2023/11/05 03:05:26;;;;;;;11.68;2.83;;;9.00;99.90;;;;;;5077313;28;20108;-75
2023/11/05 03:07:52;;;;;;;12.45;3.30;;;9.00;99.90;;;;;;5087655;28;20043;-75
2023/11/05 03:10:17;;;;;;;11.43;2.80;;;9.10;99.90;;;;;;5081343;28;20040;-78
2023/11/05 03:12:43;;;;;;;11.65;3.33;;;9.10;99.90;;;;;;5062246;28;20082;-78
2023/11/05 03:15:09;;;;;;;13.70;3.90;;;9.10;99.90;;;;;;5099176;27;20064;-78
2023/11/05 03:17:36;;;;;;;15.63;3.53;;;9.10;99.90;;;;;;5080250;28;20052;-78
2023/11/05 03:20:09;;;;;;;13.10;3.10;;;9.10;99.90;;;;;;5084194;28;20047;-78
2023/11/05 03:22:36;;;;;;;11.23;3.10;;;9.10;99.90;;;;;;5064268;28;20475;-78
2023/11/05 03:25:03;;;;;;;15.27;3.67;;;9.20;99.90;;;;;;5084679;28;20044;-75
2023/11/05 03:27:29;;;;;;;10.05;2.95;;;9.20;99.90;;;;;;5078755;28;20372;-75
2023/11/05 03:29:55;;;;;;;13.20;2.90;;;9.20;99.90;;;;;;5086216;28;20871;-75
2023/11/05 03:32:21;;;;;;;13.13;3.35;;;9.20;99.90;;;;;;5079435;28;20044;-75
2023/11/05 03:34:50;;;;;;;13.70;3.00;;;9.20;99.90;;;;;;5083567;28;20104;-75
2023/11/05 03:37:16;;;;;;;11.10;2.83;;;9.20;99.90;;;;;;5083418;28;20084;-75
2023/11/05 03:39:43;;;;;;;12.75;2.65;;;9.20;99.90;;;;;;5086028;28;20075;-75
2023/11/05 03:42:10;;;;;;;14.93;3.38;;;9.20;99.90;;;;;;5070163;28;20047;-76
2023/11/05 03:44:41;;;;;;;11.77;3.35;;;9.20;99.90;;;;;;5072163;28;20072;-75
2023/11/05 03:47:09;;;;;;;13.20;2.78;;;9.20;99.90;;;;;;5076209;28;20048;-75
2023/11/05 03:49:34;;;;;;;15.65;2.83;;;9.20;99.90;;;;;;5059433;28;20048;-76
2023/11/05 03:52:01;;;;;;;11.20;2.85;;;9.20;99.90;;;;;;5070527;28;20074;-76
2023/11/05 03:54:27;;;;;;;11.85;2.97;;;9.20;99.90;;;;;;5076267;28;20063;-76
2023/11/05 03:56:54;;;;;;;16.02;3.53;;;9.20;99.90;;;;;;5083523;28;20080;-76
2023/11/05 03:59:20;;;;;;;12.50;2.65;;;9.20;99.90;;;;;;5070203;28;20048;-76
2023/11/05 04:01:50;;;;;;;13.60;2.80;;;9.20;99.90;;;;;;5083277;28;20070;-76
2023/11/05 04:04:16;;;;;;;10.73;3.20;;;9.20;99.90;;;;;;5067582;28;20051;-76
2023/11/05 04:06:42;;;;;;;12.35;3.35;;;9.20;99.90;;;;;;5063163;28;20399;-77
2023/11/05 04:09:07;;;;;;;14.38;3.03;;;9.20;99.90;;;;;;5066761;28;20524;-76
2023/11/05 04:11:34;;;;;;;9.18;2.72;;;9.20;99.90;;;;;;5089434;28;20087;-76
2023/11/05 04:14:00;;;;;;;14.77;3.33;;;9.20;99.90;;;;;;5062692;28;20060;-76
2023/11/05 04:16:26;;;;;;;11.82;2.97;;;9.20;99.90;;;;;;5101638;27;20044;-76
2023/11/05 04:18:52;;;;;;;11.63;3.33;;;9.20;99.90;;;;;;5082159;28;20051;-78
2023/11/05 04:21:19;;;;;;;14.35;3.40;;;9.20;99.90;;;;;;5082839;28;20048;-77
2023/11/05 04:23:45;;;;;;;18.65;3.70;;;9.20;99.90;;;;;;5071953;28;20107;-79
2023/11/05 04:26:13;;;;;;;13.88;3.35;;;9.30;99.90;;;;;;5090205;28;20055;-80
2023/11/05 04:28:39;;;;;;;16.58;3.75;;;9.20;99.90;;;;;;5073995;28;20043;-76
2023/11/05 04:31:05;;;;;;;12.10;3.22;;;9.30;99.90;;;;;;5084102;28;20040;-77
2023/11/05 04:33:31;;;;;;;15.45;4.40;;;9.20;99.90;;;;;;5063500;28;20449;-76
2023/11/05 04:35:57;;;;;;;16.67;4.07;;;9.30;99.90;;;;;;5074013;28;20081;-76
2023/11/05 04:38:24;;;;;;;16.02;4.20;;;9.30;99.90;;;;;;5068561;28;20052;-76
2023/11/05 04:40:50;;;;;;;14.25;4.18;;;9.30;99.90;;;;;;5073499;28;20525;-76
2023/11/05 04:43:16;;;;;;;16.30;4.53;;;9.30;99.90;;;;;;5059571;28;20056;-76
2023/11/05 04:45:44;;;;;;;16.30;4.38;;;9.30;99.90;;;;;;5072436;28;20048;-76
2023/11/05 04:48:11;;;;;;;13.35;4.53;;;9.20;99.90;;;;;;5073252;28;20110;-76
2023/11/05 04:50:40;;;;;;;12.23;4.40;;;9.20;99.90;;;;;;5074168;28;20126;-77
2023/11/05 04:53:05;;;;;;;16.73;5.95;;;9.30;99.90;;;;;;5061450;28;20040;-77
2023/11/05 04:55:31;;;;;;;13.27;4.95;;;9.30;99.90;;;;;;5064867;28;20394;-77
2023/11/05 04:57:58;;;;;;;13.57;4.70;;;9.30;99.90;;;;;;5073476;28;20044;-77
2023/11/05 05:00:25;;;;;;;18.15;5.03;;;9.30;99.90;;;;;;5060461;28;20370;-77
2023/11/05 05:02:53;;;;;;;18.35;5.82;;;9.30;99.90;;;;;;5075831;28;20381;-77
2023/11/05 05:05:22;;;;;;;14.60;5.35;;;9.30;99.90;;;;;;5071446;28;20119;-77
2023/11/05 05:07:48;;;;;;;14.00;4.95;;;9.30;99.90;;;;;;5079506;28;20032;-77
2023/11/05 05:10:14;;;;;;;14.48;4.85;;;9.30;99.90;;;;;;5087351;28;20047;-77
2023/11/05 05:12:40;;;;;;;12.52;5.03;;;9.20;99.90;;;;;;5100247;27;20055;-77
2023/11/05 05:15:06;;;;;;;11.48;4.88;;;9.20;99.90;;;;;;5064395;28;20045;-77
2023/11/05 05:17:32;;;;;;;18.88;5.85;;;9.20;99.90;;;;;;5084976;28;20092;-77
2023/11/05 05:19:59;;;;;;;14.57;5.75;;;9.20;99.90;;;;;;5056575;28;20090;-76
2023/11/05 05:22:26;;;;;;;11.85;5.07;;;9.20;99.90;;;;;;5070011;28;20044;-77
2023/11/05 05:24:52;;;;;;;14.98;5.53;;;9.20;99.90;;;;;;5075872;28;20492;-77
2023/11/05 05:27:18;;;;;;;16.00;5.97;;;9.20;99.90;;;;;;5063375;28;20125;-77
2023/11/05 05:29:45;;;;;;;11.65;5.30;;;9.20;99.90;;;;;;5082209;28;20502;-77
2023/11/05 05:32:11;;;;;;;15.52;6.03;;;9.20;99.90;;;;;;5060575;28;20044;-77
2023/11/05 05:34:36;;;;;;;12.10;5.68;;;9.20;99.90;;;;;;5088432;28;20065;-76
2023/11/05 05:37:02;;;;;;;11.50;4.82;;;9.20;99.90;;;;;;5078823;28;20100;-77
2023/11/05 05:39:28;;;;;;;11.55;5.60;;;9.20;99.90;;;;;;5062745;28;20142;-77
2023/11/05 05:41:54;;;;;;;16.20;6.15;;;9.20;99.90;;;;;;5084230;28;20159;-77
2023/11/05 05:44:19;;;;;;;13.70;5.90;;;9.20;99.90;;;;;;5080769;28;20066;-77
2023/11/05 05:46:45;;;;;;;14.32;6.20;;;9.20;99.90;;;;;;5083932;28;20494;-76
2023/11/05 05:49:11;;;;;;;11.93;5.43;;;9.20;99.90;;;;;;5070916;28;20043;-77
2023/11/05 05:51:37;;;;;;;15.13;6.25;;;9.20;99.90;;;;;;5067969;28;20524;-76
2023/11/05 05:54:03;;;;;;;15.77;7.43;;;9.20;99.90;;;;;;5088730;28;20062;-77
2023/11/05 05:56:29;;;;;;;11.15;7.13;;;9.30;99.90;;;;;;5067858;28;20047;-77
2023/11/05 05:58:55;;;;;;;11.13;7.18;;;9.30;99.90;;;;;;5071185;28;20039;-77
2023/11/05 06:01:21;;;;;;;11.30;7.05;;;9.20;99.90;;;;;;5074867;28;20043;-76
2023/11/05 06:03:47;;;;;;;11.05;7.20;;;9.30;99.90;;;;;;5067844;28;20044;-77
2023/11/05 06:06:13;;;;;;;10.90;7.75;;;9.30;99.90;;;;;;5082991;28;20119;-77
2023/11/05 06:08:39;;;;;;;13.57;7.95;;;9.30;99.90;;;;;;5074411;28;20047;-77
2023/11/05 06:11:05;;;;;;;12.35;7.45;;;9.30;99.90;;;;;;5050677;28;20036;-77
2023/11/05 06:13:31;;;;;;;15.93;9.35;;;9.30;99.90;;;;;;5069550;28;20035;-77
2023/11/05 06:15:57;;;;;;;15.00;8.55;;;9.30;99.90;;;;;;5085877;28;20044;-77
2023/11/05 06:18:23;;;;;;;12.65;8.68;;;9.30;99.90;;;;;;5071902;28;20048;-77
2023/11/05 06:20:49;;;;;;;11.07;6.88;;;9.30;99.90;;;;;;5113028;27;20048;-77
2023/11/05 06:23:16;;;;;;;13.23;9.10;;;9.30;99.90;;;;;;5060822;28;20043;-77
2023/11/05 06:25:42;;;;;;;12.73;8.18;;;9.30;99.90;;;;;;5070149;28;20526;-77
2023/11/05 06:28:07;;;;;;;10.15;6.60;;;9.30;99.90;;;;;;5062411;28;20048;-77
2023/11/05 06:30:36;;;;;;;12.68;7.43;;;9.30;99.90;;;;;;5087341;28;20144;-77
2023/11/05 06:33:05;;;;;;;8.95;7.13;;;9.30;99.90;;;;;;5078649;28;20044;-77
2023/11/05 06:35:30;;;;;;;12.70;8.50;;;9.30;99.90;;;;;;5064581;28;20043;-77
2023/11/05 06:37:56;;;;;;;12.95;9.07;;;9.30;99.90;;;;;;5065566;28;20147;-77
2023/11/05 06:40:22;;;;;;;11.60;9.15;;;9.30;99.90;;;;;;5077809;28;20044;-77
2023/11/05 06:42:48;;;;;;;10.63;8.98;;;9.30;99.90;;;;;;5066149;28;20032;-78
2023/11/05 06:45:14;;;;;;;11.73;9.82;;;9.30;99.90;;;;;;5061426;28;20044;-78
2023/11/05 06:47:39;;;;;;;11.10;9.85;;;9.30;99.90;;;;;;5068443;28;20123;-78
2023/11/05 06:50:06;;;;;;;11.35;10.15;;;9.40;99.90;;;;;;5093654;28;20096;-78
2023/11/05 06:52:32;;;;;;;13.15;10.82;;;9.30;99.90;;;;;;5066135;28;20040;-78
2023/11/05 06:54:57;;;;;;;14.60;11.30;;;9.40;99.90;;;;;;5076621;28;20042;-78
2023/11/05 06:57:23;;;;;;;13.95;11.18;;;9.40;99.90;;;;;;5069507;28;20489;-78
2023/11/05 06:59:49;;;;;;;15.50;12.07;;;9.40;99.90;;;;;;5068141;28;20036;-78
2023/11/05 07:02:15;;;;;;;15.15;12.57;;;9.40;99.90;;;;;;5073578;28;20777;-78
2023/11/05 07:04:41;;;;;;;13.55;11.63;;;9.40;99.90;;;;;;5073255;28;20045;-79
2023/11/05 07:07:07;;;;;;;21.42;12.88;;;9.40;99.90;;;;;;5090240;28;20051;-78
2023/11/05 07:09:33;;;;;;;19.30;13.48;;;9.40;99.90;;;;;;5062081;28;20479;-78
2023/11/05 07:11:58;;;;;;;15.38;11.85;;;9.40;99.90;;;;;;5055294;28;20036;-78
2023/11/05 07:14:25;;;;;;;18.65;12.40;;;9.50;99.90;;;;;;5066321;28;20514;-78
2023/11/05 07:16:50;;;;;;;15.80;12.48;;;9.40;99.90;;;;;;5079597;28;20114;-77
2023/11/05 07:19:16;;;;;;;14.35;11.27;;;9.50;99.90;;;;;;5077302;28;20538;-77
2023/11/05 07:21:45;;;;;;;14.48;11.95;;;9.50;99.90;;;;;;5068486;28;20045;-77
2023/11/05 07:24:11;;;;;;;15.80;12.73;;;9.50;99.90;;;;;;5069151;28;20115;-77
2023/11/05 07:26:37;;;;;;;14.55;11.75;;;9.50;99.90;;;;;;5073317;28;20051;-77
2023/11/05 07:29:03;;;;;;;14.32;10.82;;;9.50;99.90;;;;;;5050408;28;20047;-77
2023/11/05 07:31:29;;;;;;;14.15;11.38;;;9.50;99.90;;;;;;5079497;28;20130;-77
2023/11/05 07:33:54;;;;;;;15.55;11.13;;;9.60;99.90;;;;;;5067193;28;20494;-77
2023/11/05 07:36:20;;;;;;;18.55;12.75;;;9.60;99.90;;;;;;5062038;28;20052;-77
2023/11/05 07:38:46;;;;;;;16.67;12.27;;;9.60;99.90;;;;;;5083808;28;20114;-76
2023/11/05 07:41:12;;;;;;;14.95;12.00;;;9.70;99.90;;;;;;5077872;28;20459;-77
2023/11/05 07:43:39;;;;;;;14.90;11.80;;;9.70;99.90;;;;;;5071531;28;20406;-78
2023/11/05 07:46:07;;;;;;;13.05;11.25;;;9.70;99.90;;;;;;5079728;28;20368;-76
2023/11/05 07:48:33;;;;;;;12.85;11.20;;;9.70;99.90;;;;;;5063366;28;20047;-76
2023/11/05 07:50:59;;;;;;;12.82;10.30;;;9.70;99.90;;;;;;5068234;28;20058;-75
2023/11/05 07:53:25;;;;;;;14.48;11.95;;;9.80;99.90;;;;;;5063147;28;20469;-75
2023/11/05 07:55:50;;;;;;;15.68;11.63;;;9.90;99.90;;;;;;5070332;28;20037;-76
2023/11/05 07:58:16;;;;;;;12.57;10.98;;;9.90;99.90;;;;;;5059216;28;20054;-76
2023/11/05 08:00:46;;;;;;;13.88;11.10;;;9.90;99.90;;;;;;5083155;28;20518;-76
2023/11/05 08:03:13;;;;;;;14.03;11.50;;;9.90;99.90;;;;;;5075036;28;20044;-76
2023/11/05 08:05:38;;;;;;;13.30;11.77;;;9.90;99.90;;;;;;5052095;28;20563;-76
2023/11/05 08:08:04;;;;;;;15.55;11.75;;;9.90;99.90;;;;;;5099333;28;20119;-76
2023/11/05 08:10:30;;;;;;;15.52;10.82;;;9.90;99.90;;;;;;5080717;28;20548;-76
2023/11/05 08:12:56;;;;;;;13.18;11.73;;;10.00;99.90;;;;;;5067284;28;20047;-76
2023/11/05 08:15:23;;;;;;;16.40;12.98;;;10.00;99.90;;;;;;5087731;28;20040;-76
2023/11/05 08:17:48;;;;;;;14.30;11.70;;;10.00;99.90;;;;;;5101461;28;20040;-76
2023/11/05 08:20:18;;;;;;;12.95;10.48;;;10.00;99.90;;;;;;5088563;28;20545;-76
2023/11/05 08:22:44;;;;;;;13.07;10.40;;;10.00;99.90;;;;;;5094126;27;20506;-76
2023/11/05 08:25:12;;;;;;;13.75;11.30;;;10.00;99.90;;;;;;5088538;27;20505;-76
2023/11/05 08:27:42;;;;;;;13.77;11.65;;;10.00;99.90;;;;;;5091264;28;20055;-76
2023/11/05 08:30:13;;;;;;;13.68;11.82;;;10.10;99.90;;;;;;5068082;28;20038;-76
2023/11/05 08:32:40;;;;;;;15.18;11.95;;;10.10;99.90;;;;;;5074520;28;20549;-76
2023/11/05 08:35:06;;;;;;;17.73;12.52;;;10.10;99.90;;;;;;5085568;28;20060;-76
2023/11/05 08:37:34;;;;;;;16.35;11.73;;;10.10;99.90;;;;;;5064438;28;20431;-76
2023/11/05 08:40:01;;;;;;;14.95;11.13;;;10.10;99.90;;;;;;5064344;28;20845;-75
2023/11/05 08:42:26;;;;;;;16.05;12.23;;;10.20;99.90;;;;;;5089598;28;20052;-76
2023/11/05 08:44:52;;;;;;;15.27;12.05;;;10.20;99.90;;;;;;5054429;27;20054;-76
2023/11/05 08:47:24;;;;;;;14.15;11.32;;;10.20;99.90;;;;;;5069766;28;20047;-76
2023/11/05 08:49:49;;;;;;;16.13;11.98;;;10.20;99.90;;;;;;5067888;28;20042;-76
2023/11/05 08:52:15;;;;;;;12.70;11.38;;;10.30;99.90;;;;;;5070312;28;20059;-76
2023/11/05 08:54:41;;;;;;;14.77;11.68;;;10.30;99.90;;;;;;5066511;28;20040;-76
2023/11/05 08:57:08;;;;;;;12.50;10.68;;;10.30;99.90;;;;;;5067199;28;20060;-76
2023/11/05 08:59:34;;;;;;;15.57;12.15;;;10.30;99.90;;;;;;5066179;28;20095;-77
2023/11/05 09:02:00;;;;;;;15.52;13.02;;;10.30;99.90;;;;;;5074789;28;20531;-76
2023/11/05 09:04:25;;;;;;;15.27;11.50;;;10.40;99.90;;;;;;5071960;28;20406;-76
2023/11/05 09:06:51;;;;;;;14.48;11.82;;;10.40;99.90;;;;;;5055869;28;20479;-77
2023/11/05 09:09:17;;;;;;;15.45;11.45;;;10.40;99.90;;;;;;5073947;28;20128;-76
2023/11/05 09:11:42;;;;;;;15.23;11.63;;;10.50;99.90;;;;;;5057046;28;20033;-76
2023/11/05 09:14:09;;;;;;;16.42;13.02;;;10.50;99.90;;;;;;5066460;28;20048;-77
2023/11/05 09:16:34;;;;;;;14.70;11.18;;;10.60;99.90;;;;;;5060821;28;20056;-76
2023/11/05 09:19:00;;;;;;;13.25;11.38;;;10.60;99.90;;;;;;5039704;28;20121;-77
2023/11/05 09:21:27;;;;;;;15.88;12.75;;;10.60;99.90;;;;;;5034920;28;20175;-77
2023/11/05 09:23:54;;;;;;;13.98;11.30;;;10.70;99.90;;;;;;5056076;28;20521;-76
2023/11/05 09:26:21;;;;;;;15.40;11.43;;;10.70;99.90;;;;;;5046774;28;20056;-77
2023/11/05 09:28:47;;;;;;;14.43;11.90;;;10.70;99.90;;;;;;5060951;28;20251;-77
2023/11/05 09:31:13;;;;;;;14.05;10.32;;;10.80;99.90;;;;;;5061594;28;20074;-77
2023/11/05 09:33:39;;;;;;;12.82;10.18;;;10.80;99.90;;;;;;5048445;28;20044;-77
2023/11/05 09:36:05;;;;;;;16.00;10.73;;;10.80;99.90;;;;;;5037635;28;20058;-76
2023/11/05 09:38:33;;;;;;;19.27;12.38;;;10.80;99.90;;;;;;5035816;28;20704;-76
2023/11/05 09:40:59;;;;;;;14.63;11.77;;;10.80;99.90;;;;;;5037342;28;20047;-76
2023/11/05 09:43:28;;;;;;;14.30;10.27;;;10.90;99.90;;;;;;5050579;28;20056;-77
2023/11/05 09:45:56;;;;;;;13.68;9.82;;;10.90;99.90;;;;;;5037555;28;20171;-76
2023/11/05 09:48:23;;;;;;;15.23;10.98;;;10.90;99.90;;;;;;5077424;28;20083;-77
2023/11/05 09:50:51;;;;;;;14.75;10.65;;;11.00;99.90;;;;;;5081240;28;20044;-77
2023/11/05 09:53:17;;;;;;;12.02;8.88;;;10.90;99.90;;;;;;5066289;28;20075;-77
2023/11/05 09:55:47;;;;;;;13.30;8.88;;;10.90;99.90;;;;;;5073785;28;20119;-76
2023/11/05 09:58:14;;;;;;;13.50;9.03;;;11.00;99.90;;;;;;5077376;28;20040;-78
2023/11/05 10:00:40;;;;;;;12.48;9.57;;;11.00;99.90;;;;;;5082515;28;20290;-78
2023/11/05 10:03:08;;;;;;;12.80;8.88;;;11.00;99.90;;;;;;5062594;28;20120;-77
2023/11/05 10:05:39;;;;;;;16.08;10.27;;;11.00;99.90;;;;;;5065861;28;20583;-77
2023/11/05 10:08:05;;;;;;;12.48;8.98;;;11.00;99.90;;;;;;5092992;28;20043;-77
2023/11/05 10:10:32;;;;;;;15.95;9.95;;;11.00;99.90;;;;;;5059919;28;20047;-78
2023/11/05 10:12:58;;;;;;;17.10;9.52;;;11.00;99.90;;;;;;5053375;28;20042;-78
2023/11/05 10:15:25;;;;;;;13.52;9.02;;;11.10;99.90;;;;;;5066568;28;20048;-77
2023/11/05 10:17:53;;;;;;;13.95;9.02;;;11.10;99.90;;;;;;5078186;28;20091;-77
2023/11/05 10:20:23;;;;;;;15.73;10.23;;;11.20;99.90;;;;;;5064813;28;20048;-77
2023/11/05 10:23:01;;;;;;;;;;;11.20;99.90;;;;;;5076300;28;20048;-77
2023/11/05 10:25:27;;;;;;;14.52;9.63;;;11.30;99.90;;;;;;5066815;28;19927;-78
2023/11/05 10:27:53;;;;;;;14.50;9.63;;;11.30;99.90;;;;;;5079711;28;20032;-78
2023/11/05 10:30:23;;;;;;;14.60;9.43;;;11.30;99.90;;;;;;5054130;28;20033;-77
2023/11/05 10:32:51;;;;;;;16.67;9.85;;;11.40;99.90;;;;;;5084811;28;20035;-77
2023/11/05 10:35:21;;;;;;;17.80;10.05;;;11.50;99.90;;;;;;5081694;28;20122;-77
2023/11/05 10:37:48;;;;;;;18.17;10.30;;;11.60;99.90;;;;;;5072007;28;20113;-78
2023/11/05 10:40:16;;;;;;;17.30;10.50;;;11.60;99.90;;;;;;5081820;28;20044;-76
2023/11/05 10:42:49;;;;;;;13.05;9.13;;;11.70;99.90;;;;;;5074211;28;20130;-77
2023/11/05 10:45:17;;;;;;;13.32;9.80;;;11.60;99.90;;;;;;5079005;28;20089;-77
2023/11/05 10:47:45;;;;;;;15.77;9.85;;;11.60;99.90;;;;;;5061983;28;20558;-77
2023/11/05 10:50:15;;;;;;;15.98;9.57;;;11.70;99.90;;;;;;5075670;28;20131;-77
2023/11/05 10:52:43;;;;;;;23.65;11.45;;;11.70;99.90;;;;;;5082208;28;20068;-77
2023/11/05 10:55:10;;;;;;;18.60;11.02;;;11.70;99.90;;;;;;5079179;28;20132;-77
2023/11/05 10:57:47;;;;;;;18.95;12.32;;;11.70;99.90;;;;;;5076342;28;20542;-76
2023/11/05 11:00:16;;;;;;;17.95;10.65;;;11.70;99.90;;;;;;5061169;28;20047;-76
2023/11/05 11:02:42;;;;;;;18.17;11.98;;;11.70;99.90;;;;;;5064064;28;20569;-76
2023/11/05 11:05:15;;;;;;;16.02;11.32;;;11.70;99.90;;;;;;5056291;28;20047;-76
2023/11/05 11:07:42;;;;;;;17.55;11.80;;;11.70;99.90;;;;;;5072058;28;20059;-76
2023/11/05 11:10:12;;;;;;;20.90;11.20;;;11.70;99.90;;;;;;5068500;28;20037;-76
2023/11/05 11:12:39;;;;;;;;;;;11.70;99.90;;;;;;5069067;28;20063;-76
2023/11/05 11:15:09;;;;;;;17.73;11.43;;;11.60;99.90;;;;;;5073324;28;19967;-76
2023/11/05 11:17:39;;;;;;;20.33;12.00;;;11.60;99.90;;;;;;5071668;28;20040;-76
2023/11/05 11:20:15;;;;;;;19.67;11.50;;;11.60;99.90;;;;;;5075665;28;20042;-76
2023/11/05 11:22:45;;;;;;;18.95;12.38;;;11.60;99.90;;;;;;5070617;28;20448;-76
2023/11/05 11:25:14;;;;;;;16.88;10.65;;;11.60;99.90;;;;;;5076937;28;20060;-75
2023/11/05 11:27:40;;;;;;;19.15;11.30;;;11.60;99.90;;;;;;5071510;28;20506;-76
2023/11/05 11:30:09;;;;;;;18.85;11.43;;;11.60;99.90;;;;;;5087734;28;20517;-76
2023/11/05 11:32:37;;;;;;;14.43;9.60;;;11.60;99.90;;;;;;5085512;28;20048;-75
2023/11/05 11:35:03;;;;;;;18.90;10.07;;;11.70;99.90;;;;;;5064433;28;20052;-77
2023/11/05 11:37:29;;;;;;;20.10;11.73;;;11.70;99.90;;;;;;5068046;28;20506;-75
2023/11/05 11:39:58;;;;;;;13.32;10.32;;;11.80;99.90;;;;;;5080033;28;20067;-76
2023/11/05 11:42:24;;;;;;;13.82;9.75;;;11.80;99.90;;;;;;5082041;28;20467;-75
2023/11/05 11:44:50;;;;;;;16.27;10.35;;;11.80;99.90;;;;;;5081231;28;20090;-76
2023/11/05 11:47:16;;;;;;;15.55;10.43;;;11.90;99.90;;;;;;5081198;28;20050;-75
2023/11/05 11:49:45;;;;;;;15.73;9.73;;;12.00;99.90;;;;;;5070641;28;21063;-75
2023/11/05 11:52:14;;;;;;;16.45;11.30;;;12.00;99.90;;;;;;5068669;28;20575;-76
2023/11/05 11:54:42;;;;;;;17.60;10.80;;;12.00;99.90;;;;;;5068985;28;20040;-75
2023/11/05 11:57:07;;;;;;;16.88;10.88;;;12.00;99.90;;;;;;5086226;28;20039;-75
2023/11/05 11:59:34;;;;;;;14.75;9.30;;;12.00;99.90;;;;;;5069041;28;20073;-76
2023/11/05 12:02:02;;;;;;;15.98;10.07;;;12.00;99.90;;;;;;5063455;28;20051;-75
2023/11/05 12:04:29;;;;;;;14.00;9.18;;;12.00;99.90;;;;;;5083879;28;20055;-76
2023/11/05 12:06:56;;;;;;;15.45;9.10;;;12.00;99.90;;;;;;5081196;28;20461;-76
2023/11/05 12:09:23;;;;;;;15.25;9.82;;;12.00;99.90;;;;;;5066170;28;20054;-75
2023/11/05 12:11:50;;;;;;;16.25;9.23;;;12.00;99.90;;;;;;5065107;28;20096;-76
2023/11/05 12:14:23;;;;;;;12.95;8.68;;;12.00;99.90;;;;;;5058662;28;20360;-76
2023/11/05 12:16:51;;;;;;;14.02;8.32;;;12.00;99.90;;;;;;5084800;28;20485;-76
2023/11/05 12:19:17;;;;;;;12.35;9.27;;;12.00;99.90;;;;;;5066161;28;20395;-75
2023/11/05 12:21:43;;;;;;;15.68;10.07;;;12.00;99.90;;;;;;5082792;28;20047;-75
2023/11/05 12:24:10;;;;;;;14.48;9.15;;;12.00;99.90;;;;;;5065457;28;20070;-75
2023/11/05 12:26:42;;;;;;;13.52;9.05;;;12.00;99.90;;;;;;5082036;28;20044;-77
2023/11/05 12:29:12;;;;;;;19.05;10.32;;;11.90;99.90;;;;;;5079113;28;20239;-77
2023/11/05 12:31:39;;;;;;;13.23;8.88;;;11.90;99.90;;;;;;5069305;28;20413;-77
2023/11/05 12:34:05;;;;;;;14.95;9.20;;;11.90;99.90;;;;;;5063699;28;20044;-80
2023/11/05 12:36:31;;;;;;;13.93;9.13;;;11.90;99.90;;;;;;5084299;28;20047;-81
2023/11/05 12:38:58;;;;;;;11.50;8.88;;;11.80;99.90;;;;;;5067613;28;20040;-81